Fontana Dam, North Carolina
Current Conditions -  °F | °C
As of 5:55 AM on Thursday 23 Oct 2014 (Local Time) from KRHP Reporting Station
Moderate Fog Moderate Fog  
Wind Chill: 34°   Ceiling: 200
Heat Index: 34°   Visibility: 0.5mi
Dew Point: 34°   Wind: 0mph
Humidity: 100%   Direction: NA
Pressure: 30.14"   Gusts: NA
Location:  35.43°N, 83.83°W
Report Text: KRHP 230955Z AUTO 00000KT 1/2SM FG OVC002 01/01 A3014 RMK AO2 T00130013
Loading
Personal Weather Stations






























Interactive Weather Map
Tropical Storm Tracking
New forecast layout! Learn more

10-Day Weather Forecast

Advertisements
Track Severe Weather on mobile